createdAt,value
2018-06-03T00:01:34.686Z,3.83
2018-06-03T00:04:03.534Z,8.53
2018-06-03T00:06:32.277Z,5.67
2018-06-03T00:09:01.022Z,6.47
2018-06-03T00:11:29.762Z,5.13
2018-06-03T00:13:58.478Z,22.73
2018-06-03T00:16:27.182Z,9.13
2018-06-03T00:18:55.897Z,4.50
2018-06-03T00:21:35.570Z,8.70
2018-06-03T00:24:04.325Z,9.63
2018-06-03T00:26:33.022Z,10.27
2018-06-03T00:29:01.718Z,4.33
2018-06-03T00:31:30.456Z,10.53
2018-06-03T00:33:59.161Z,5.80
2018-06-03T00:36:39.009Z,7.20
2018-06-03T00:39:08.897Z,4.33
2018-06-03T00:41:37.621Z,8.37
2018-06-03T00:44:06.367Z,11.37
2018-06-03T00:46:35.091Z,8.80
2018-06-03T00:49:03.916Z,10.40
2018-06-03T00:51:32.719Z,12.20
2018-06-03T00:54:01.439Z,15.30
2018-06-03T00:56:41.101Z,11.70
2018-06-03T00:59:09.819Z,10.70
2018-06-03T01:01:38.531Z,7.17
2018-06-03T01:04:07.278Z,6.57
2018-06-03T01:06:36.011Z,5.30
2018-06-03T01:09:05.960Z,5.40
2018-06-03T01:11:34.694Z,11.47
2018-06-03T01:14:03.501Z,7.53
2018-06-03T01:16:32.374Z,12.10
2018-06-03T01:19:01.124Z,6.27
2018-06-03T01:21:29.842Z,12.50
2018-06-03T01:23:58.533Z,8.27
2018-06-03T01:26:27.276Z,18.30
2018-06-03T01:28:55.965Z,7.90
2018-06-03T01:31:24.649Z,16.33
2018-06-03T01:33:53.405Z,8.93
2018-06-03T01:36:22.102Z,7.47
2018-06-03T01:38:50.813Z,16.80
2018-06-03T01:41:19.529Z,6.40
2018-06-03T01:43:48.301Z,16.90
2018-06-03T01:46:17.019Z,9.50
2018-06-03T01:48:45.754Z,6.00
2018-06-03T01:51:14.467Z,5.90
2018-06-03T01:53:43.174Z,12.60
2018-06-03T01:56:11.887Z,6.50
2018-06-03T01:58:40.586Z,13.13
2018-06-03T02:01:09.300Z,12.70
2018-06-03T02:03:38.063Z,8.10
2018-06-03T02:06:06.770Z,14.83
2018-06-03T02:08:35.498Z,20.40
2018-06-03T02:11:04.230Z,11.70
2018-06-03T02:13:32.972Z,8.97
2018-06-03T02:16:01.662Z,11.90
2018-06-03T02:18:30.618Z,6.60
2018-06-03T02:20:59.337Z,6.63
2018-06-03T02:23:28.057Z,15.80
2018-06-03T02:25:56.810Z,6.97
2018-06-03T02:28:25.708Z,6.30
2018-06-03T02:30:54.424Z,7.47
2018-06-03T02:33:23.171Z,9.40
2018-06-03T02:35:51.922Z,12.33
2018-06-03T02:38:20.660Z,8.33
2018-06-03T02:40:49.431Z,7.77
2018-06-03T02:43:18.146Z,7.33
2018-06-03T02:45:46.850Z,11.23
2018-06-03T02:48:15.566Z,8.13
2018-06-03T02:50:44.275Z,10.53
2018-06-03T02:53:12.973Z,13.17
2018-06-03T02:55:41.695Z,13.03
2018-06-03T02:58:10.390Z,8.70
2018-06-03T03:00:39.103Z,10.57
2018-06-03T03:03:07.824Z,8.53
2018-06-03T03:05:36.506Z,10.90
2018-06-03T03:08:05.231Z,7.83
2018-06-03T03:10:34.132Z,12.90
2018-06-03T03:13:02.847Z,23.47
2018-06-03T03:15:31.565Z,12.33
2018-06-03T03:18:00.285Z,6.40
2018-06-03T03:20:29.030Z,8.60
2018-06-03T03:22:57.723Z,10.70
2018-06-03T03:25:26.489Z,12.20
2018-06-03T03:27:55.245Z,10.57
2018-06-03T03:30:24.084Z,13.37
2018-06-03T03:32:52.823Z,9.57
2018-06-03T03:35:21.534Z,10.30
2018-06-03T03:37:50.264Z,11.10
2018-06-03T03:40:19.016Z,13.40
2018-06-03T03:42:47.739Z,6.53
2018-06-03T03:45:16.442Z,5.13
2018-06-03T03:47:45.199Z,10.60
2018-06-03T03:50:13.994Z,8.83
2018-06-03T03:52:42.701Z,8.00
2018-06-03T03:55:11.458Z,5.60
2018-06-03T03:57:40.262Z,18.17
2018-06-03T04:00:09.003Z,11.37
2018-06-03T04:02:37.786Z,13.63
2018-06-03T04:05:06.515Z,11.00
2018-06-03T04:07:35.245Z,5.13
2018-06-03T04:10:03.999Z,6.53
2018-06-03T04:12:32.699Z,7.73
2018-06-03T04:15:01.415Z,7.10
2018-06-03T04:17:30.146Z,5.30
2018-06-03T04:19:59.066Z,6.20
2018-06-03T04:22:27.805Z,7.40
2018-06-03T04:24:56.586Z,4.40
2018-06-03T04:27:25.299Z,6.53
2018-06-03T04:29:54.005Z,5.70
2018-06-03T04:32:22.734Z,9.83
2018-06-03T04:34:51.443Z,7.10
2018-06-03T04:37:20.164Z,8.87
2018-06-03T04:39:48.922Z,9.57
2018-06-03T04:42:17.631Z,27.57
2018-06-03T04:44:46.348Z,12.93
2018-06-03T04:47:15.117Z,27.60
2018-06-03T04:49:43.803Z,22.97
2018-06-03T04:52:12.502Z,19.90
2018-06-03T04:54:41.248Z,22.00
2018-06-03T04:57:09.956Z,6.97
2018-06-03T04:59:38.654Z,11.87
2018-06-03T05:02:07.499Z,12.53
2018-06-03T05:04:36.209Z,9.03
2018-06-03T05:07:04.919Z,5.57
2018-06-03T05:09:33.654Z,8.27
2018-06-03T05:12:02.350Z,7.70
2018-06-03T05:14:31.301Z,4.50
2018-06-03T05:17:00.227Z,6.00
2018-06-03T05:19:28.943Z,3.53
2018-06-03T05:21:57.652Z,5.97
2018-06-03T05:24:26.398Z,10.73
2018-06-03T05:26:55.129Z,6.90
2018-06-03T05:29:23.834Z,4.07
2018-06-03T05:31:52.561Z,18.33
2018-06-03T05:34:21.295Z,2.73
2018-06-03T05:36:50.050Z,3.23
2018-06-03T05:39:18.835Z,17.23
2018-06-03T05:41:47.563Z,5.10
2018-06-03T05:44:16.284Z,24.20
2018-06-03T05:46:45.030Z,13.60
2018-06-03T05:49:13.750Z,15.63
2018-06-03T05:51:42.488Z,11.40
2018-06-03T05:54:11.365Z,10.67
2018-06-03T05:56:40.085Z,8.37
2018-06-03T05:59:08.821Z,11.83
2018-06-03T06:01:37.602Z,10.23
2018-06-03T06:04:06.302Z,8.47
2018-06-03T06:06:35.020Z,4.73
2018-06-03T06:09:03.961Z,10.30
2018-06-03T06:11:32.725Z,6.90
2018-06-03T06:14:01.474Z,3.50
2018-06-03T06:16:30.248Z,7.30
2018-06-03T06:18:58.968Z,9.83
2018-06-03T06:21:27.708Z,8.20
2018-06-03T06:23:56.471Z,5.53
2018-06-03T06:26:25.229Z,8.90
2018-06-03T06:28:53.936Z,13.33
2018-06-03T06:31:22.656Z,3.57
2018-06-03T06:33:51.378Z,4.17
2018-06-03T06:36:20.062Z,5.60
2018-06-03T06:38:48.793Z,5.53
2018-06-03T06:41:17.489Z,3.02
2018-06-03T06:43:46.190Z,6.60
2018-06-03T06:46:14.942Z,5.63
2018-06-03T06:48:43.644Z,4.00
2018-06-03T06:51:12.400Z,5.33
2018-06-03T06:53:41.166Z,4.85
2018-06-03T06:56:10.054Z,7.67
2018-06-03T06:58:38.768Z,5.17
2018-06-03T07:01:07.559Z,3.27
2018-06-03T07:03:36.309Z,10.30
2018-06-03T07:06:05.012Z,6.47
2018-06-03T07:08:33.742Z,10.15
2018-06-03T07:11:02.599Z,10.23
2018-06-03T07:13:31.307Z,9.93
2018-06-03T07:16:00.040Z,7.08
2018-06-03T07:18:28.746Z,5.55
2018-06-03T07:20:57.459Z,3.10
2018-06-03T07:23:26.242Z,4.12
2018-06-03T07:25:54.987Z,11.60
2018-06-03T07:28:23.669Z,8.85
2018-06-03T07:30:52.390Z,20.50
2018-06-03T07:33:21.081Z,10.93
2018-06-03T07:35:49.799Z,3.50
2018-06-03T07:38:18.588Z,26.25
2018-06-03T07:40:47.303Z,31.43
2018-06-03T07:43:16.521Z,5.87
2018-06-03T07:45:45.290Z,5.75
2018-06-03T07:48:14.046Z,8.95
2018-06-03T07:50:42.771Z,5.70
2018-06-03T07:53:11.507Z,6.05
2018-06-03T07:55:40.225Z,3.70
2018-06-03T07:58:08.951Z,3.17
2018-06-03T08:00:37.682Z,5.40
2018-06-03T08:03:06.406Z,3.40
2018-06-03T08:05:35.095Z,8.53
2018-06-03T08:08:03.855Z,5.00
2018-06-03T08:10:32.555Z,5.83
2018-06-03T08:13:01.250Z,6.58
2018-06-03T08:15:29.983Z,6.50
2018-06-03T08:17:58.739Z,13.90
2018-06-03T08:20:28.028Z,17.73
2018-06-03T08:22:56.770Z,5.17
2018-06-03T08:25:25.483Z,6.43
2018-06-03T08:27:54.179Z,7.07
2018-06-03T08:30:22.964Z,4.33
2018-06-03T08:32:51.714Z,3.55
2018-06-03T08:35:20.454Z,41.83
2018-06-03T08:37:49.222Z,3.22
2018-06-03T08:40:18.471Z,12.90
2018-06-03T08:42:47.176Z,5.87
2018-06-03T08:45:15.918Z,4.15
2018-06-03T08:47:44.626Z,9.35
2018-06-03T08:50:13.338Z,10.98
2018-06-03T08:52:42.091Z,3.22
2018-06-03T08:55:10.884Z,10.78
2018-06-03T08:57:39.640Z,9.70
2018-06-03T09:00:08.386Z,4.50
2018-06-03T09:02:37.094Z,5.92
2018-06-03T09:05:06.223Z,4.75
2018-06-03T09:07:35.003Z,6.72
2018-06-03T09:10:03.715Z,5.43
2018-06-03T09:12:32.460Z,2.67
2018-06-03T09:15:01.194Z,10.93
2018-06-03T09:17:29.915Z,7.37
2018-06-03T09:19:58.651Z,10.23
2018-06-03T09:22:27.431Z,5.40
2018-06-03T09:24:56.167Z,8.33
2018-06-03T09:27:24.911Z,12.57
2018-06-03T09:29:53.689Z,7.27
2018-06-03T09:32:22.421Z,8.67
2018-06-03T09:34:51.138Z,35.00
2018-06-03T09:37:19.900Z,6.40
2018-06-03T09:39:48.629Z,38.63
2018-06-03T09:42:17.407Z,7.73
2018-06-03T09:44:46.269Z,4.17
2018-06-03T09:47:15.023Z,15.20
2018-06-03T09:49:43.783Z,12.57
2018-06-03T09:52:12.658Z,6.27
2018-06-03T09:54:41.519Z,4.30
2018-06-03T09:57:10.342Z,3.60
2018-06-03T09:59:39.286Z,9.40
2018-06-03T10:02:08.170Z,9.20
2018-06-03T10:04:36.895Z,10.03
2018-06-03T10:07:05.664Z,5.30
2018-06-03T10:09:34.414Z,16.37
2018-06-03T10:12:03.109Z,16.70
2018-06-03T10:14:31.865Z,17.63
2018-06-03T10:17:00.569Z,9.30
2018-06-03T10:19:29.277Z,20.40
2018-06-03T10:21:58.067Z,5.03
2018-06-03T10:24:26.782Z,10.00
2018-06-03T10:26:55.523Z,9.70
2018-06-03T10:29:24.321Z,12.70
2018-06-03T10:31:53.055Z,6.40
2018-06-03T10:34:21.827Z,16.73
2018-06-03T10:36:50.595Z,12.17
2018-06-03T10:39:19.459Z,16.83
2018-06-03T10:41:48.222Z,11.50
2018-06-03T10:44:17.010Z,10.43
2018-06-03T10:46:45.750Z,6.80
2018-06-03T10:49:14.486Z,16.80
2018-06-03T10:51:43.226Z,4.57
2018-06-03T10:54:12.047Z,5.37
2018-06-03T10:56:40.827Z,5.60
2018-06-03T10:59:09.677Z,15.67
2018-06-03T11:01:38.522Z,7.80
2018-06-03T11:04:07.335Z,27.37
2018-06-03T11:06:36.454Z,10.43
2018-06-03T11:09:06.871Z,7.40
2018-06-03T11:11:35.740Z,7.60
2018-06-03T11:14:04.534Z,6.40
2018-06-03T11:16:33.358Z,8.30
2018-06-03T11:19:02.175Z,9.10
2018-06-03T11:21:30.985Z,9.83
2018-06-03T11:23:59.814Z,6.13
2018-06-03T11:26:28.582Z,14.83
2018-06-03T11:28:57.382Z,5.50
2018-06-03T11:31:26.115Z,25.83
2018-06-03T11:33:54.829Z,9.80
2018-06-03T11:36:23.594Z,9.10
2018-06-03T11:38:52.342Z,8.73
2018-06-03T11:41:21.137Z,34.30
2018-06-03T11:43:49.944Z,9.40
2018-06-03T11:46:18.681Z,7.03
2018-06-03T11:48:47.407Z,4.67
2018-06-03T11:51:17.000Z,7.50
2018-06-03T11:53:45.795Z,6.50
2018-06-03T11:56:14.537Z,11.73
2018-06-03T11:58:52.486Z,3.50
2018-06-03T12:01:21.377Z,8.53
2018-06-03T12:03:50.155Z,7.33
2018-06-03T12:06:18.873Z,21.17
2018-06-03T12:08:47.629Z,18.63
2018-06-03T12:11:16.507Z,9.00
2018-06-03T12:13:45.262Z,4.90
2018-06-03T12:16:13.966Z,7.47
2018-06-03T12:18:42.714Z,16.90
2018-06-03T12:21:11.552Z,9.90
2018-06-03T12:23:40.258Z,6.73
2018-06-03T12:26:09.065Z,6.03
2018-06-03T12:28:37.830Z,9.70
2018-06-03T12:31:06.610Z,13.77
2018-06-03T12:33:35.376Z,5.47
2018-06-03T12:36:04.176Z,5.27
2018-06-03T12:38:32.994Z,6.33
2018-06-03T12:41:01.755Z,8.80
2018-06-03T12:43:30.505Z,12.03
2018-06-03T12:45:59.247Z,4.90
2018-06-03T12:48:27.994Z,12.80
2018-06-03T12:50:56.810Z,5.73
2018-06-03T12:53:25.582Z,6.90
2018-06-03T12:55:54.311Z,10.17
2018-06-03T12:58:23.090Z,5.50
2018-06-03T13:00:51.889Z,13.30
2018-06-03T13:03:20.636Z,5.23
2018-06-03T13:05:49.374Z,5.37
2018-06-03T13:08:18.120Z,10.60
2018-06-03T13:10:47.672Z,8.23
2018-06-03T13:13:16.462Z,6.20
2018-06-03T13:15:45.191Z,6.33
2018-06-03T13:18:13.935Z,8.03
2018-06-03T13:20:42.686Z,6.83
2018-06-03T13:23:11.403Z,6.60
2018-06-03T13:25:40.127Z,6.50
2018-06-03T13:28:08.870Z,4.63
2018-06-03T13:30:37.602Z,8.83
2018-06-03T13:33:06.490Z,15.83
2018-06-03T13:35:35.263Z,8.33
2018-06-03T13:38:03.986Z,9.00
2018-06-03T13:40:32.706Z,9.63
2018-06-03T13:43:01.474Z,6.27
2018-06-03T13:45:30.442Z,10.23
2018-06-03T13:47:59.542Z,6.20
2018-06-03T13:50:28.689Z,4.57
2018-06-03T13:52:58.046Z,5.97
2018-06-03T13:55:26.787Z,6.53
2018-06-03T13:57:55.579Z,8.10
2018-06-03T14:00:24.431Z,5.40
2018-06-03T14:02:53.156Z,5.40
2018-06-03T14:05:22.087Z,6.27
2018-06-03T14:07:50.857Z,5.70
2018-06-03T14:10:19.598Z,6.40
2018-06-03T14:12:51.648Z,9.53
2018-06-03T14:15:20.536Z,6.10
2018-06-03T14:17:49.299Z,4.17
2018-06-03T14:20:18.527Z,21.00
2018-06-03T14:22:47.298Z,7.83
2018-06-03T14:25:16.062Z,11.93
2018-06-03T14:27:44.790Z,4.80
2018-06-03T14:30:13.495Z,6.60
2018-06-03T14:32:42.269Z,11.63
2018-06-03T14:35:11.086Z,11.20
2018-06-03T14:37:39.811Z,15.90
2018-06-03T14:40:08.600Z,7.60
2018-06-03T14:42:37.321Z,5.47
2018-06-03T14:45:06.050Z,6.43
2018-06-03T14:47:34.802Z,8.13
2018-06-03T14:50:03.570Z,5.77
2018-06-03T14:52:32.295Z,5.57
2018-06-03T14:55:01.058Z,5.70
2018-06-03T14:57:29.812Z,6.13
2018-06-03T14:59:58.505Z,4.83
2018-06-03T15:02:27.242Z,5.23
2018-06-03T15:04:55.955Z,5.10
2018-06-03T15:07:24.669Z,6.83
2018-06-03T15:09:53.478Z,4.83
2018-06-03T15:12:22.203Z,14.03
2018-06-03T15:14:50.931Z,15.07
2018-06-03T15:17:19.703Z,6.07
2018-06-03T15:19:48.449Z,13.63
2018-06-03T15:22:17.963Z,10.27
2018-06-03T15:24:46.765Z,41.53
2018-06-03T15:27:15.510Z,8.47
2018-06-03T15:29:44.229Z,5.03
2018-06-03T15:32:13.016Z,6.57
2018-06-03T15:34:41.745Z,14.00
2018-06-03T15:37:10.492Z,7.00
2018-06-03T15:39:39.454Z,7.20
2018-06-03T15:42:08.411Z,11.47
2018-06-03T15:44:37.352Z,7.47
2018-06-03T15:47:06.160Z,12.43
2018-06-03T15:49:34.884Z,26.37
2018-06-03T15:52:03.615Z,15.47
2018-06-03T15:54:32.403Z,11.03
2018-06-03T15:57:01.162Z,7.30
2018-06-03T15:59:29.908Z,9.93
2018-06-03T16:01:58.663Z,5.07
2018-06-03T16:04:27.385Z,9.20
2018-06-03T16:06:56.382Z,8.83
2018-06-03T16:09:25.136Z,25.77
2018-06-03T16:11:53.893Z,10.40
2018-06-03T16:14:22.636Z,5.50
2018-06-03T16:16:51.412Z,29.20
2018-06-03T16:19:20.140Z,16.43
2018-06-03T16:21:48.857Z,23.93
2018-06-03T16:24:17.618Z,12.80
2018-06-03T16:26:46.528Z,15.27
2018-06-03T16:29:15.275Z,17.23
2018-06-03T16:31:44.043Z,8.33
2018-06-03T16:34:12.774Z,16.43
2018-06-03T16:36:41.512Z,11.93
2018-06-03T16:39:10.247Z,8.13
2018-06-03T16:41:39.021Z,7.87
2018-06-03T16:44:07.730Z,8.97
2018-06-03T16:46:36.463Z,10.77
2018-06-03T16:49:05.174Z,12.00
2018-06-03T16:51:34.003Z,18.13
2018-06-03T16:54:02.745Z,10.43
2018-06-03T16:56:31.520Z,26.30
2018-06-03T16:59:00.246Z,10.70
2018-06-03T17:01:28.995Z,20.23
2018-06-03T17:03:57.700Z,27.47
2018-06-03T17:06:26.498Z,10.70
2018-06-03T17:08:55.270Z,28.90
2018-06-03T17:11:23.992Z,21.43
2018-06-03T17:13:52.699Z,11.97
2018-06-03T17:16:21.441Z,24.00
2018-06-03T17:18:50.179Z,16.83
2018-06-03T17:21:18.890Z,23.00
2018-06-03T17:23:47.620Z,35.83
2018-06-03T17:26:16.398Z,34.70
2018-06-03T17:28:45.093Z,9.40
2018-06-03T17:31:13.844Z,26.27
2018-06-03T17:33:42.563Z,9.77
2018-06-03T17:36:11.276Z,11.90
2018-06-03T17:38:40.167Z,21.23
2018-06-03T17:41:08.892Z,14.03
2018-06-03T17:43:37.627Z,19.50
2018-06-03T17:46:06.405Z,21.83
2018-06-03T17:48:35.170Z,22.23
2018-06-03T17:51:03.963Z,15.90
2018-06-03T17:53:32.792Z,21.70
2018-06-03T17:56:01.614Z,14.97
2018-06-03T17:58:30.482Z,17.33
2018-06-03T18:00:59.243Z,32.50
2018-06-03T18:03:28.154Z,17.53
2018-06-03T18:06:00.448Z,15.07
2018-06-03T18:08:29.287Z,17.00
2018-06-03T18:11:03.612Z,24.63
2018-06-03T18:13:37.415Z,20.03
2018-06-03T18:16:12.456Z,18.50
2018-06-03T18:18:42.757Z,25.77
2018-06-03T18:21:15.174Z,21.57
2018-06-03T18:23:44.753Z,19.87
2018-06-03T18:26:15.527Z,27.83
2018-06-03T18:28:46.600Z,23.87
2018-06-03T18:31:22.430Z,21.10
2018-06-03T18:33:58.157Z,18.80
2018-06-03T18:36:35.017Z,16.90
2018-06-03T18:39:12.034Z,17.67
2018-06-03T18:41:49.130Z,28.60
2018-06-03T18:44:18.136Z,21.03
2018-06-03T18:46:46.907Z,21.53
2018-06-03T18:49:15.606Z,22.80
2018-06-03T18:51:44.312Z,18.57
2018-06-03T18:54:13.226Z,18.30
2018-06-03T18:56:41.954Z,24.60
2018-06-03T18:59:10.710Z,33.57
2018-06-03T19:01:39.630Z,20.23
2018-06-03T19:04:08.378Z,25.30
2018-06-03T19:06:37.168Z,65.50
2018-06-03T19:09:07.561Z,60.30
2018-06-03T19:11:36.388Z,37.87
2018-06-03T19:14:05.248Z,25.37
2018-06-03T19:16:34.158Z,32.13
2018-06-03T19:19:02.981Z,36.73
2018-06-03T19:21:31.715Z,25.13
2018-06-03T19:24:00.493Z,32.37
2018-06-03T19:26:29.202Z,35.50
2018-06-03T19:28:57.908Z,28.47
2018-06-03T19:31:26.668Z,32.50
2018-06-03T19:33:55.422Z,36.60
2018-06-03T19:36:24.118Z,28.43
2018-06-03T19:38:52.855Z,34.13
2018-06-03T19:41:21.642Z,34.70
2018-06-03T19:43:50.365Z,30.90
2018-06-03T19:46:19.323Z,28.80
2018-06-03T19:48:48.081Z,28.50
2018-06-03T19:51:16.882Z,24.33
2018-06-03T19:53:46.862Z,28.90
2018-06-03T19:56:15.598Z,46.43
2018-06-03T19:58:44.322Z,64.90
2018-06-03T20:01:13.082Z,26.73
2018-06-03T20:03:41.835Z,24.30
2018-06-03T20:06:10.562Z,37.13
2018-06-03T20:08:40.243Z,34.17
2018-06-03T20:11:08.983Z,42.40
2018-06-03T20:13:37.710Z,32.53
2018-06-03T20:16:06.479Z,37.67
2018-06-03T20:18:35.239Z,40.23
2018-06-03T20:21:03.966Z,32.87
2018-06-03T20:23:32.817Z,34.73
2018-06-03T20:26:01.581Z,26.53
2018-06-03T20:28:30.413Z,34.30
2018-06-03T20:30:59.258Z,32.33
2018-06-03T20:33:28.020Z,35.80
2018-06-03T20:35:56.758Z,29.30
2018-06-03T20:38:25.515Z,39.70
2018-06-03T20:40:54.334Z,37.93
2018-06-03T20:43:23.039Z,27.50
2018-06-03T20:45:51.848Z,38.07
2018-06-03T20:48:20.553Z,28.43
2018-06-03T20:50:49.306Z,33.97
2018-06-03T20:53:18.074Z,34.50
2018-06-03T20:55:46.780Z,45.77
2018-06-03T20:58:15.486Z,31.33
2018-06-03T21:00:44.209Z,28.27
2018-06-03T21:03:12.931Z,30.77
2018-06-03T21:05:41.653Z,35.37
2018-06-03T21:08:10.398Z,33.20
2018-06-03T21:10:39.165Z,33.43
2018-06-03T21:13:07.905Z,37.83
2018-06-03T21:15:36.661Z,39.13
2018-06-03T21:18:05.566Z,34.97
2018-06-03T21:20:34.413Z,27.43
2018-06-03T21:23:03.144Z,39.97
2018-06-03T21:25:31.833Z,49.30
2018-06-03T21:28:00.745Z,33.67
2018-06-03T21:30:29.512Z,29.77
2018-06-03T21:32:58.235Z,32.17
2018-06-03T21:35:27.018Z,34.23
2018-06-03T21:37:55.796Z,30.10
2018-06-03T21:40:24.558Z,37.70
2018-06-03T21:42:53.314Z,33.17
2018-06-03T21:45:22.085Z,35.90
2018-06-03T21:47:50.806Z,31.13
2018-06-03T21:50:19.535Z,33.30
2018-06-03T21:52:48.261Z,43.20
2018-06-03T21:55:16.949Z,40.23
2018-06-03T21:57:45.641Z,32.97
2018-06-03T22:00:15.102Z,34.30
2018-06-03T22:02:43.897Z,35.87
2018-06-03T22:05:12.730Z,28.10
2018-06-03T22:07:41.498Z,29.77
2018-06-03T22:10:10.234Z,34.70
2018-06-03T22:12:38.921Z,40.60
2018-06-03T22:15:07.652Z,32.47
2018-06-03T22:17:36.349Z,35.50
2018-06-03T22:20:05.196Z,33.33
2018-06-03T22:22:33.921Z,31.47
2018-06-03T22:25:02.638Z,30.27
2018-06-03T22:27:31.338Z,33.50
2018-06-03T22:30:00.087Z,32.60
2018-06-03T22:32:28.774Z,36.77
2018-06-03T22:34:57.463Z,37.77
2018-06-03T22:37:26.181Z,37.23
2018-06-03T22:39:55.005Z,39.63
2018-06-03T22:42:23.891Z,37.17
2018-06-03T22:44:52.619Z,32.07
2018-06-03T22:47:21.305Z,46.10
2018-06-03T22:49:49.993Z,29.17
2018-06-03T22:52:18.702Z,42.40
2018-06-03T22:54:47.393Z,37.20
2018-06-03T22:57:48.322Z,29.80
2018-06-03T23:00:22.515Z,44.30
2018-06-03T23:02:56.624Z,42.47
2018-06-03T23:05:25.359Z,39.63
2018-06-03T23:07:54.174Z,36.77
2018-06-03T23:10:23.009Z,35.07
2018-06-03T23:12:51.702Z,40.77
2018-06-03T23:15:20.423Z,33.60
2018-06-03T23:17:49.162Z,38.43
2018-06-03T23:20:17.945Z,33.87
2018-06-03T23:22:46.686Z,38.53
2018-06-03T23:25:15.450Z,45.13
2018-06-03T23:27:44.209Z,34.83
2018-06-03T23:30:12.945Z,36.43
2018-06-03T23:32:41.703Z,36.07
2018-06-03T23:35:10.415Z,36.43
2018-06-03T23:37:39.144Z,42.67
2018-06-03T23:40:07.881Z,37.50
2018-06-03T23:42:36.598Z,41.53
2018-06-03T23:45:05.310Z,37.87
2018-06-03T23:47:34.046Z,37.50
2018-06-03T23:50:02.769Z,41.33
2018-06-03T23:52:31.493Z,36.83
2018-06-03T23:55:00.253Z,37.47
2018-06-03T23:57:28.962Z,48.20
2018-06-03T23:59:57.835Z,50.87
